JST654 YMML-YSCB
Flight info
| Callsign | JST654 |
|---|---|
| Flight time | 0h 42m |
| Altitude | 33000 |
| Route | ML H129 DOSEL Y59 ARRAN J42 CB |
| Aircraft | A320/M-SDE3FGHIRWY/LB1 |
Departure
| Time | 2026-05-06 12:30 |
|---|---|
| Airport | Melbourne Airport (YMML) |
Arrival
| Time | 2026-05-06 13:12 |
|---|---|
| Airport | Canberra Airport (YSCB) |
| Time | Latitude | Longitude | Altitude | Speed | Heading |
|---|---|---|---|---|---|
| 2026-05-06 12:19 | -37.67538 | 144.84696 | 379 ft | 0 kts | 172° |
| 2026-05-06 12:21 | -37.67533 | 144.84695 | 379 ft | 4 kts | 172° |
| 2026-05-06 12:21 | -37.67506 | 144.84690 | 380 ft | 4 kts | 171° |
| 2026-05-06 12:21 | -37.67480 | 144.84685 | 380 ft | 4 kts | 179° |
| 2026-05-06 12:22 | -37.67454 | 144.84690 | 381 ft | 4 kts | 208° |
| 2026-05-06 12:22 | -37.67438 | 144.84710 | 382 ft | 3 kts | 261° |
| 2026-05-06 12:22 | -37.67437 | 144.84718 | 382 ft | 1 kts | 262° |
| 2026-05-06 12:24 | -37.67437 | 144.84716 | 382 ft | 2 kts | 262° |
| 2026-05-06 12:24 | -37.67445 | 144.84644 | 381 ft | 13 kts | 262° |
| 2026-05-06 12:25 | -37.67459 | 144.84520 | 379 ft | 17 kts | 261° |
| 2026-05-06 12:25 | -37.67467 | 144.84362 | 377 ft | 20 kts | 288° |
| 2026-05-06 12:25 | -37.67367 | 144.84306 | 379 ft | 16 kts | 348° |
| 2026-05-06 12:25 | -37.67254 | 144.84275 | 381 ft | 17 kts | 351° |
| 2026-05-06 12:26 | -37.67129 | 144.84252 | 383 ft | 19 kts | 352° |
| 2026-05-06 12:26 | -37.66996 | 144.84230 | 386 ft | 20 kts | 353° |
| 2026-05-06 12:26 | -37.66854 | 144.84204 | 390 ft | 21 kts | 351° |
| 2026-05-06 12:26 | -37.66719 | 144.84202 | 395 ft | 10 kts | 38° |
| 2026-05-06 12:27 | -37.66692 | 144.84281 | 397 ft | 10 kts | 72° |
| 2026-05-06 12:27 | -37.66674 | 144.84412 | 397 ft | 22 kts | 81° |
| 2026-05-06 12:27 | -37.66651 | 144.84622 | 400 ft | 25 kts | 81° |
| 2026-05-06 12:27 | -37.66586 | 144.84796 | 404 ft | 20 kts | 5° |
| 2026-05-06 12:28 | -37.66452 | 144.84774 | 409 ft | 19 kts | 4° |
| 2026-05-06 12:28 | -37.66344 | 144.84785 | 412 ft | 10 kts | 5° |
| 2026-05-06 12:28 | -37.66269 | 144.84784 | 413 ft | 12 kts | 357° |
| 2026-05-06 12:28 | -37.66220 | 144.84702 | 413 ft | 9 kts | 275° |
| 2026-05-06 12:29 | -37.66220 | 144.84700 | 413 ft | 0 kts | 275° |
| 2026-05-06 12:29 | -37.66214 | 144.84579 | 409 ft | 46 kts | 275° |
| 2026-05-06 12:29 | -37.66172 | 144.83878 | 413 ft | 110 kts | 274° |
| 2026-05-06 12:30 | -37.66104 | 144.82723 | 578 ft | 143 kts | 274° |
| 2026-05-06 12:30 | -37.66050 | 144.81500 | 1261 ft | 136 kts | 274° |
| 2026-05-06 12:30 | -37.65983 | 144.80276 | 1909 ft | 142 kts | 272° |
| 2026-05-06 12:30 | -37.65905 | 144.79016 | 2438 ft | 154 kts | 272° |
| 2026-05-06 12:31 | -37.65820 | 144.77604 | 2696 ft | 167 kts | 272° |
| 2026-05-06 12:31 | -37.65726 | 144.76027 | 2992 ft | 192 kts | 273° |
| 2026-05-06 12:31 | -37.65619 | 144.74235 | 3450 ft | 217 kts | 273° |
| 2026-05-06 12:31 | -37.65502 | 144.72239 | 4095 ft | 236 kts | 272° |
| 2026-05-06 12:32 | -37.65377 | 144.70144 | 5068 ft | 242 kts | 271° |
| 2026-05-06 12:32 | -37.65133 | 144.68027 | 6049 ft | 249 kts | 285° |
| 2026-05-06 12:32 | -37.64269 | 144.66090 | 6987 ft | 261 kts | 307° |
| 2026-05-06 12:32 | -37.62787 | 144.64714 | 7935 ft | 272 kts | 332° |
| 2026-05-06 12:33 | -37.60966 | 144.63976 | 8952 ft | 276 kts | 338° |
| 2026-05-06 12:33 | -37.59122 | 144.63296 | 9949 ft | 277 kts | 338° |
| 2026-05-06 12:33 | -37.57192 | 144.62745 | 10504 ft | 301 kts | 352° |
| 2026-05-06 12:33 | -37.55013 | 144.63180 | 10765 ft | 336 kts | 14° |
| 2026-05-06 12:34 | -37.52858 | 144.64605 | 11132 ft | 363 kts | 31° |
| 2026-05-06 12:34 | -37.50977 | 144.66819 | 11751 ft | 378 kts | 46° |
| 2026-05-06 12:34 | -37.49346 | 144.69465 | 12424 ft | 384 kts | 47° |
| 2026-05-06 12:34 | -37.47710 | 144.72168 | 13026 ft | 393 kts | 49° |
| 2026-05-06 12:35 | -37.46261 | 144.75139 | 13685 ft | 402 kts | 54° |
| 2026-05-06 12:35 | -37.44848 | 144.78199 | 14379 ft | 406 kts | 54° |
| 2026-05-06 12:35 | -37.43430 | 144.81291 | 15019 ft | 410 kts | 54° |
| 2026-05-06 12:35 | -37.42005 | 144.84415 | 15670 ft | 412 kts | 54° |
| 2026-05-06 12:36 | -37.40574 | 144.87550 | 16306 ft | 415 kts | 53° |
| 2026-05-06 12:36 | -37.39149 | 144.90668 | 16926 ft | 418 kts | 53° |
| 2026-05-06 12:36 | -37.37691 | 144.93843 | 17574 ft | 421 kts | 53° |
| 2026-05-06 12:36 | -37.36217 | 144.97040 | 18163 ft | 424 kts | 53° |
| 2026-05-06 12:37 | -37.34730 | 145.00260 | 18747 ft | 428 kts | 53° |
| 2026-05-06 12:37 | -37.33206 | 145.03549 | 19356 ft | 430 kts | 53° |
| 2026-05-06 12:37 | -37.31696 | 145.06811 | 19955 ft | 433 kts | 52° |
| 2026-05-06 12:37 | -37.30178 | 145.10091 | 20514 ft | 436 kts | 52° |
| 2026-05-06 12:38 | -37.28644 | 145.13406 | 21046 ft | 440 kts | 52° |
| 2026-05-06 12:38 | -37.27098 | 145.16747 | 21547 ft | 444 kts | 52° |
| 2026-05-06 12:38 | -37.25541 | 145.20108 | 22030 ft | 447 kts | 52° |
| 2026-05-06 12:38 | -37.24008 | 145.23431 | 22209 ft | 433 kts | 52° |
| 2026-05-06 12:39 | -37.22501 | 145.26687 | 22355 ft | 443 kts | 52° |
| 2026-05-06 12:39 | -37.20923 | 145.30059 | 22724 ft | 450 kts | 51° |
| 2026-05-06 12:39 | -37.19330 | 145.33455 | 23178 ft | 454 kts | 51° |
| 2026-05-06 12:39 | -37.17723 | 145.36883 | 23653 ft | 458 kts | 51° |
| 2026-05-06 12:40 | -37.16055 | 145.40290 | 24054 ft | 456 kts | 46° |
| 2026-05-06 12:40 | -37.14213 | 145.43531 | 24399 ft | 458 kts | 46° |
| 2026-05-06 12:40 | -37.12347 | 145.46791 | 24763 ft | 461 kts | 46° |
| 2026-05-06 12:40 | -37.10470 | 145.50063 | 25143 ft | 464 kts | 46° |
| 2026-05-06 12:41 | -37.08584 | 145.53347 | 25527 ft | 465 kts | 46° |
| 2026-05-06 12:41 | -37.06690 | 145.56641 | 25965 ft | 467 kts | 45° |
| 2026-05-06 12:41 | -37.04786 | 145.59946 | 26376 ft | 468 kts | 45° |
| 2026-05-06 12:41 | -37.02875 | 145.63262 | 26771 ft | 470 kts | 45° |
| 2026-05-06 12:42 | -37.00956 | 145.66592 | 27136 ft | 473 kts | 45° |
| 2026-05-06 12:42 | -36.99042 | 145.69911 | 27501 ft | 476 kts | 45° |
| 2026-05-06 12:42 | -36.97097 | 145.73280 | 27885 ft | 478 kts | 45° |
| 2026-05-06 12:42 | -36.95141 | 145.76665 | 28287 ft | 480 kts | 45° |
| 2026-05-06 12:43 | -36.93182 | 145.80056 | 28699 ft | 482 kts | 45° |
| 2026-05-06 12:43 | -36.91213 | 145.83458 | 29145 ft | 483 kts | 45° |
| 2026-05-06 12:43 | -36.89235 | 145.86868 | 29616 ft | 483 kts | 45° |
| 2026-05-06 12:43 | -36.87266 | 145.90259 | 30160 ft | 481 kts | 45° |
| 2026-05-06 12:44 | -36.85325 | 145.93600 | 30622 ft | 481 kts | 44° |
| 2026-05-06 12:44 | -36.83352 | 145.96992 | 31048 ft | 481 kts | 44° |
| 2026-05-06 12:44 | -36.81376 | 146.00378 | 31451 ft | 482 kts | 44° |
| 2026-05-06 12:44 | -36.79400 | 146.03764 | 31844 ft | 483 kts | 44° |
| 2026-05-06 12:45 | -36.77423 | 146.07155 | 32260 ft | 483 kts | 44° |
| 2026-05-06 12:45 | -36.75444 | 146.10548 | 32667 ft | 483 kts | 45° |
| 2026-05-06 12:45 | -36.71504 | 146.17290 | 33122 ft | 485 kts | 45° |
| 2026-05-06 12:46 | -36.69509 | 146.20691 | 33115 ft | 486 kts | 44° |
| 2026-05-06 12:46 | -36.65510 | 146.27507 | 33118 ft | 487 kts | 44° |
| 2026-05-06 12:47 | -36.61509 | 146.34316 | 33106 ft | 485 kts | 45° |
| 2026-05-06 12:47 | -36.57524 | 146.41087 | 33120 ft | 484 kts | 45° |
| 2026-05-06 12:48 | -36.53564 | 146.47794 | 33129 ft | 483 kts | 45° |
| 2026-05-06 12:48 | -36.49569 | 146.54536 | 33131 ft | 484 kts | 45° |
| 2026-05-06 12:49 | -36.46246 | 146.60139 | 33090 ft | 484 kts | 45° |
| 2026-05-06 12:49 | -36.42227 | 146.66906 | 33122 ft | 494 kts | 45° |
| 2026-05-06 12:50 | -36.38108 | 146.73824 | 33128 ft | 498 kts | 45° |
| 2026-05-06 12:50 | -36.34011 | 146.80707 | 33124 ft | 499 kts | 45° |
| 2026-05-06 12:51 | -36.29876 | 146.87633 | 33131 ft | 498 kts | 45° |
| 2026-05-06 12:51 | -36.25770 | 146.94510 | 33125 ft | 498 kts | 45° |
| 2026-05-06 12:52 | -36.21646 | 147.01401 | 33101 ft | 498 kts | 45° |
| 2026-05-06 12:52 | -36.17500 | 147.08292 | 33115 ft | 498 kts | 45° |
| 2026-05-06 12:53 | -36.13365 | 147.15157 | 33130 ft | 497 kts | 45° |
| 2026-05-06 12:53 | -36.09234 | 147.22011 | 33142 ft | 496 kts | 45° |
| 2026-05-06 12:54 | -36.05130 | 147.28802 | 33133 ft | 495 kts | 45° |
| 2026-05-06 12:54 | -36.00992 | 147.35625 | 33138 ft | 494 kts | 45° |
| 2026-05-06 12:55 | -35.96861 | 147.42425 | 33145 ft | 494 kts | 45° |
| 2026-05-06 12:55 | -35.92966 | 147.48841 | 33148 ft | 493 kts | 45° |
| 2026-05-06 12:56 | -35.88846 | 147.55595 | 33156 ft | 493 kts | 44° |
| 2026-05-06 12:56 | -35.85068 | 147.62761 | 33155 ft | 506 kts | 57° |
| 2026-05-06 12:57 | -35.83034 | 147.71132 | 33149 ft | 513 kts | 76° |
| 2026-05-06 12:57 | -35.82172 | 147.79791 | 32235 ft | 513 kts | 77° |
| 2026-05-06 12:57 | -35.81719 | 147.84187 | 31112 ft | 521 kts | 77° |
| 2026-05-06 12:58 | -35.81254 | 147.88628 | 30128 ft | 524 kts | 78° |
| 2026-05-06 12:58 | -35.80785 | 147.93100 | 29008 ft | 526 kts | 78° |
| 2026-05-06 12:58 | -35.80318 | 147.97567 | 27905 ft | 527 kts | 78° |
| 2026-05-06 12:58 | -35.79852 | 148.02045 | 26900 ft | 526 kts | 79° |
| 2026-05-06 12:59 | -35.79390 | 148.06498 | 25979 ft | 523 kts | 79° |
| 2026-05-06 12:59 | -35.78931 | 148.10931 | 25093 ft | 519 kts | 79° |
| 2026-05-06 12:59 | -35.78472 | 148.15334 | 24303 ft | 514 kts | 79° |
| 2026-05-06 12:59 | -35.78014 | 148.19691 | 23480 ft | 508 kts | 79° |
| 2026-05-06 13:00 | -35.77568 | 148.23919 | 22608 ft | 501 kts | 79° |
| 2026-05-06 13:00 | -35.77119 | 148.28152 | 21749 ft | 495 kts | 79° |
| 2026-05-06 13:00 | -35.76673 | 148.32339 | 20906 ft | 489 kts | 79° |
| 2026-05-06 13:00 | -35.76232 | 148.36474 | 20095 ft | 483 kts | 79° |
| 2026-05-06 13:01 | -35.75795 | 148.40557 | 19307 ft | 478 kts | 79° |
| 2026-05-06 13:01 | -35.75358 | 148.44607 | 18544 ft | 473 kts | 79° |
| 2026-05-06 13:01 | -35.74928 | 148.48550 | 17601 ft | 470 kts | 79° |
| 2026-05-06 13:01 | -35.74495 | 148.52527 | 16613 ft | 467 kts | 79° |
| 2026-05-06 13:02 | -35.74064 | 148.56482 | 15660 ft | 465 kts | 79° |
| 2026-05-06 13:02 | -35.73483 | 148.60368 | 14721 ft | 459 kts | 71° |
| 2026-05-06 13:02 | -35.72467 | 148.64053 | 13833 ft | 447 kts | 66° |
| 2026-05-06 13:02 | -35.71442 | 148.67535 | 13318 ft | 418 kts | 66° |
| 2026-05-06 13:03 | -35.70461 | 148.70859 | 12915 ft | 410 kts | 66° |
| 2026-05-06 13:03 | -35.69482 | 148.74148 | 12531 ft | 408 kts | 66° |
| 2026-05-06 13:03 | -35.68511 | 148.77394 | 12131 ft | 395 kts | 67° |
| 2026-05-06 13:03 | -35.67592 | 148.80484 | 11762 ft | 378 kts | 67° |
| 2026-05-06 13:04 | -35.66690 | 148.83503 | 11142 ft | 375 kts | 67° |
| 2026-05-06 13:04 | -35.65785 | 148.86522 | 10484 ft | 375 kts | 67° |
| 2026-05-06 13:04 | -35.64889 | 148.89503 | 9825 ft | 375 kts | 67° |
| 2026-05-06 13:04 | -35.63983 | 148.92517 | 9116 ft | 375 kts | 67° |
| 2026-05-06 13:05 | -35.63081 | 148.95527 | 8422 ft | 375 kts | 68° |
| 2026-05-06 13:05 | -35.62176 | 148.98550 | 7737 ft | 375 kts | 68° |
| 2026-05-06 13:05 | -35.61279 | 149.01544 | 7260 ft | 370 kts | 68° |
| 2026-05-06 13:05 | -35.60402 | 149.04467 | 7069 ft | 357 kts | 67° |
| 2026-05-06 13:06 | -35.59272 | 149.07036 | 6976 ft | 337 kts | 50° |
| 2026-05-06 13:06 | -35.57859 | 149.09312 | 6701 ft | 331 kts | 52° |
| 2026-05-06 13:06 | -35.56632 | 149.11640 | 6616 ft | 318 kts | 56° |
| 2026-05-06 13:06 | -35.55535 | 149.13946 | 6551 ft | 307 kts | 57° |
| 2026-05-06 13:07 | -35.54497 | 149.16189 | 6484 ft | 296 kts | 57° |
| 2026-05-06 13:07 | -35.53292 | 149.18165 | 6199 ft | 286 kts | 35° |
| 2026-05-06 13:07 | -35.51630 | 149.19259 | 5893 ft | 265 kts | 9° |
| 2026-05-06 13:07 | -35.49864 | 149.19460 | 5552 ft | 248 kts | 354° |
| 2026-05-06 13:08 | -35.48164 | 149.19453 | 5247 ft | 241 kts | 354° |
| 2026-05-06 13:08 | -35.46506 | 149.19448 | 4932 ft | 233 kts | 355° |
| 2026-05-06 13:08 | -35.44925 | 149.19448 | 4628 ft | 220 kts | 356° |
| 2026-05-06 13:08 | -35.43449 | 149.19449 | 4329 ft | 205 kts | 356° |
| 2026-05-06 13:09 | -35.42065 | 149.19449 | 4076 ft | 189 kts | 356° |
| 2026-05-06 13:09 | -35.40796 | 149.19448 | 3818 ft | 176 kts | 357° |
| 2026-05-06 13:09 | -35.39617 | 149.19447 | 3549 ft | 167 kts | 358° |
| 2026-05-06 13:09 | -35.38487 | 149.19446 | 3301 ft | 157 kts | 359° |
| 2026-05-06 13:10 | -35.37424 | 149.19446 | 3109 ft | 148 kts | 356° |
| 2026-05-06 13:10 | -35.36434 | 149.19446 | 2923 ft | 138 kts | 357° |
| 2026-05-06 13:10 | -35.35497 | 149.19447 | 2706 ft | 133 kts | 359° |
| 2026-05-06 13:10 | -35.34709 | 149.19446 | 2489 ft | 132 kts | 360° |
| 2026-05-06 13:11 | -35.34397 | 149.19444 | 2405 ft | 129 kts | 0° |
| 2026-05-06 13:11 | -35.33519 | 149.19454 | 2273 ft | 130 kts | 0° |
| 2026-05-06 13:11 | -35.33080 | 149.19453 | 2206 ft | 129 kts | 359° |
| 2026-05-06 13:11 | -35.32181 | 149.19442 | 2033 ft | 128 kts | 358° |
| 2026-05-06 13:12 | -35.31295 | 149.19446 | 1886 ft | 127 kts | 0° |
| 2026-05-06 13:12 | -35.30517 | 149.19440 | 1879 ft | 99 kts | 1° |
| 2026-05-06 13:12 | -35.29990 | 149.19445 | 1880 ft | 50 kts | 359° |
| 2026-05-06 13:12 | -35.29736 | 149.19443 | 1879 ft | 33 kts | 0° |
| 2026-05-06 13:13 | -35.29602 | 149.19438 | 1879 ft | 7 kts | 334° |
| 2026-05-06 13:13 | -35.29581 | 149.19382 | 1879 ft | 9 kts | 272° |
| 2026-05-06 13:13 | -35.29586 | 149.19291 | 1879 ft | 12 kts | 261° |
| 2026-05-06 13:13 | -35.29652 | 149.19243 | 1880 ft | 13 kts | 178° |
| 2026-05-06 13:14 | -35.29754 | 149.19243 | 1880 ft | 16 kts | 180° |
| 2026-05-06 13:14 | -35.29869 | 149.19244 | 1880 ft | 18 kts | 179° |